createdAt,value
2018-06-18T00:00:57.332Z,67.35
2018-06-18T00:01:57.329Z,67.07
2018-06-18T00:03:50.250Z,66.87
2018-06-18T00:04:50.325Z,67.07
2018-06-18T00:06:43.207Z,67.16
2018-06-18T00:07:43.209Z,66.97
2018-06-18T00:09:36.122Z,66.87
2018-06-18T00:10:36.149Z,67.07
2018-06-18T00:12:29.083Z,67.25
2018-06-18T00:13:29.084Z,67.07
2018-06-18T00:15:21.997Z,66.87
2018-06-18T00:16:22.022Z,66.97
2018-06-18T00:18:14.955Z,66.87
2018-06-18T00:19:14.960Z,66.68
2018-06-18T00:21:07.879Z,66.77
2018-06-18T00:22:07.907Z,67.54
2018-06-18T00:24:00.839Z,67.03
2018-06-18T00:25:00.847Z,67.22
2018-06-18T00:26:53.778Z,67.07
2018-06-18T00:27:53.779Z,67.41
2018-06-18T00:29:46.694Z,67.80
2018-06-18T00:30:46.716Z,68.08
2018-06-18T00:32:39.650Z,67.99
2018-06-18T00:33:39.652Z,68.08
2018-06-18T00:35:32.575Z,67.99
2018-06-18T00:36:32.590Z,68.37
2018-06-18T00:38:25.527Z,68.44
2018-06-18T00:39:25.525Z,68.91
2018-06-18T00:41:18.446Z,68.53
2018-06-18T00:42:18.471Z,68.82
2018-06-18T00:44:11.402Z,69.30
2018-06-18T00:45:11.404Z,69.40
2018-06-18T00:47:04.350Z,69.20
2018-06-18T00:48:04.342Z,69.20
2018-06-18T00:49:57.255Z,69.68
2018-06-18T00:50:57.279Z,69.93
2018-06-18T00:52:50.212Z,69.84
2018-06-18T00:53:50.215Z,70.32
2018-06-18T00:55:43.126Z,70.51
2018-06-18T00:56:43.148Z,70.32
2018-06-18T00:58:36.081Z,70.32
2018-06-18T00:59:36.084Z,69.93
2018-06-18T01:01:28.999Z,70.26
2018-06-18T01:02:29.021Z,70.17
2018-06-18T01:04:21.952Z,70.55
2018-06-18T01:05:21.953Z,70.26
2018-06-18T01:07:14.865Z,70.26
2018-06-18T01:08:14.889Z,70.17
2018-06-18T01:10:07.824Z,70.26
2018-06-18T01:11:07.827Z,70.26
2018-06-18T01:13:00.771Z,70.36
2018-06-18T01:14:00.771Z,70.17
2018-06-18T01:15:53.687Z,70.17
2018-06-18T01:16:53.713Z,70.36
2018-06-18T01:18:46.647Z,70.36
2018-06-18T01:19:46.643Z,69.97
2018-06-18T01:21:39.556Z,70.36
2018-06-18T01:22:39.579Z,70.07
2018-06-18T01:24:32.510Z,70.36
2018-06-18T01:25:32.513Z,70.45
2018-06-18T01:27:25.425Z,70.45
2018-06-18T01:28:25.449Z,71.51
2018-06-18T01:30:18.386Z,72.18
2018-06-18T01:31:18.386Z,72.33
2018-06-18T01:33:11.298Z,73.68
2018-06-18T01:34:11.322Z,74.35
2018-06-18T01:36:04.253Z,74.64
2018-06-18T01:37:04.256Z,74.41
2018-06-18T01:38:57.167Z,75.46
2018-06-18T01:39:57.196Z,75.08
2018-06-18T01:41:50.122Z,76.04
2018-06-18T01:42:50.125Z,76.52
2018-06-18T01:44:43.057Z,76.32
2018-06-18T01:45:43.059Z,76.14
2018-06-18T01:47:35.972Z,75.65
2018-06-18T01:48:35.992Z,75.70
2018-06-18T01:50:28.926Z,75.21
2018-06-18T01:51:28.928Z,75.70
2018-06-18T01:53:21.840Z,74.64
2018-06-18T01:54:21.862Z,74.93
2018-06-18T01:56:14.948Z,75.02
2018-06-18T01:57:14.953Z,74.35
2018-06-18T01:59:07.866Z,74.54
2018-06-18T02:00:07.887Z,74.64
2018-06-18T02:02:00.820Z,74.26
2018-06-18T02:03:00.821Z,74.06
2018-06-18T02:04:53.766Z,73.62
2018-06-18T02:05:53.758Z,73.87
2018-06-18T02:07:46.677Z,73.24
2018-06-18T02:08:46.695Z,73.43
2018-06-18T02:10:39.629Z,73.14
2018-06-18T02:11:39.633Z,73.04
2018-06-18T02:13:32.543Z,73.43
2018-06-18T02:14:32.616Z,73.43
2018-06-18T02:16:25.497Z,73.62
2018-06-18T02:17:25.499Z,73.04
2018-06-18T02:19:18.411Z,72.95
2018-06-18T02:20:18.433Z,72.75
2018-06-18T02:22:11.367Z,72.66
2018-06-18T02:23:11.369Z,72.75
2018-06-18T02:25:04.280Z,73.14
2018-06-18T02:26:04.301Z,73.24
2018-06-18T02:27:57.235Z,73.81
2018-06-18T02:28:57.245Z,73.24
2018-06-18T02:30:50.155Z,73.72
2018-06-18T02:31:50.173Z,73.24
2018-06-18T02:33:43.105Z,73.24
2018-06-18T02:34:43.108Z,73.43
2018-06-18T02:36:36.044Z,73.33
2018-06-18T02:37:36.045Z,73.24
2018-06-18T02:39:28.961Z,73.81
2018-06-18T02:40:28.981Z,73.52
2018-06-18T02:42:21.913Z,73.91
2018-06-18T02:43:21.913Z,73.72
2018-06-18T02:45:15.048Z,73.91
2018-06-18T02:46:15.070Z,73.87
2018-06-18T02:48:08.006Z,73.49
2018-06-18T02:49:08.007Z,74.54
2018-06-18T02:51:00.917Z,74.26
2018-06-18T02:52:00.940Z,74.06
2018-06-18T02:53:53.870Z,74.54
2018-06-18T02:54:53.875Z,74.54
2018-06-18T02:56:46.807Z,74.26
2018-06-18T02:57:46.808Z,75.31
2018-06-18T02:59:39.730Z,75.31
2018-06-18T03:00:39.753Z,75.79
2018-06-18T03:02:32.683Z,75.60
2018-06-18T03:03:32.686Z,75.40
2018-06-18T03:05:25.599Z,75.40
2018-06-18T03:06:25.621Z,75.12
2018-06-18T03:08:18.550Z,76.04
2018-06-18T03:09:18.554Z,75.95
2018-06-18T03:11:11.468Z,76.23
2018-06-18T03:12:11.488Z,76.42
2018-06-18T03:14:04.424Z,76.23
2018-06-18T03:15:04.432Z,76.42
2018-06-18T03:16:57.337Z,76.52
2018-06-18T03:17:57.359Z,76.32
2018-06-18T03:19:50.289Z,76.04
2018-06-18T03:20:50.290Z,76.14
2018-06-18T03:22:43.222Z,76.81
2018-06-18T03:23:43.222Z,76.62
2018-06-18T03:25:36.138Z,77.13
2018-06-18T03:26:36.158Z,76.52
2018-06-18T03:28:29.092Z,76.27
2018-06-18T03:29:29.102Z,76.46
2018-06-18T03:31:22.008Z,75.98
2018-06-18T03:32:22.027Z,76.56
2018-06-18T03:34:14.960Z,76.17
2018-06-18T03:35:14.962Z,75.98
2018-06-18T03:37:07.928Z,75.70
2018-06-18T03:38:07.893Z,75.70
2018-06-18T03:40:00.828Z,75.60
2018-06-18T03:41:00.829Z,75.70
2018-06-18T03:42:53.739Z,75.21
2018-06-18T03:43:53.762Z,74.44
2018-06-18T03:45:46.692Z,75.02
2018-06-18T03:46:46.695Z,74.35
2018-06-18T03:48:39.626Z,74.19
2018-06-18T03:49:39.633Z,74.39
2018-06-18T03:51:32.541Z,74.29
2018-06-18T03:52:32.562Z,74.19
2018-06-18T03:54:25.495Z,73.91
2018-06-18T03:55:25.500Z,73.72
2018-06-18T03:57:18.410Z,73.81
2018-06-18T03:58:18.431Z,73.72
2018-06-18T04:00:11.367Z,74.01
2018-06-18T04:01:11.368Z,74.01
2018-06-18T04:03:04.281Z,73.81
2018-06-18T04:04:04.305Z,73.72
2018-06-18T04:05:57.236Z,74.19
2018-06-18T04:06:57.243Z,74.39
2018-06-18T04:08:50.173Z,74.39
2018-06-18T04:09:50.173Z,73.91
2018-06-18T04:11:43.087Z,73.72
2018-06-18T04:12:43.107Z,73.75
2018-06-18T04:14:36.042Z,74.33
2018-06-18T04:15:36.046Z,74.52
2018-06-18T04:17:28.960Z,74.62
2018-06-18T04:18:28.983Z,74.33
2018-06-18T04:20:21.963Z,73.66
2018-06-18T04:21:21.917Z,73.85
2018-06-18T04:23:14.830Z,74.04
2018-06-18T04:24:14.853Z,73.37
2018-06-18T04:26:07.786Z,74.13
2018-06-18T04:27:07.790Z,73.75
2018-06-18T04:29:00.727Z,73.46
2018-06-18T04:30:00.726Z,73.27
2018-06-18T04:31:53.639Z,73.46
2018-06-18T04:32:53.671Z,73.46
2018-06-18T04:34:46.597Z,73.08
2018-06-18T04:35:46.604Z,73.11
2018-06-18T04:37:39.560Z,72.83
2018-06-18T04:38:39.539Z,72.73
2018-06-18T04:40:32.472Z,72.41
2018-06-18T04:41:32.475Z,72.16
2018-06-18T04:43:25.388Z,72.92
2018-06-18T04:44:25.411Z,73.11
2018-06-18T04:46:18.344Z,73.69
2018-06-18T04:47:18.355Z,73.69
2018-06-18T04:49:11.266Z,73.41
2018-06-18T04:50:11.294Z,73.69
2018-06-18T04:52:04.223Z,73.60
2018-06-18T04:53:04.226Z,73.50
2018-06-18T04:54:57.163Z,73.02
2018-06-18T04:55:57.171Z,72.34
2018-06-18T04:57:50.076Z,72.34
2018-06-18T04:58:50.101Z,72.34
2018-06-18T05:00:43.035Z,71.77
2018-06-18T05:01:43.043Z,72.06
2018-06-18T05:03:35.951Z,72.54
2018-06-18T05:04:35.975Z,71.96
2018-06-18T05:06:29.109Z,71.67
2018-06-18T05:07:29.115Z,71.48
2018-06-18T05:09:22.025Z,71.67
2018-06-18T05:10:22.051Z,71.67
2018-06-18T05:12:14.984Z,71.10
2018-06-18T05:13:14.985Z,70.90
2018-06-18T05:15:07.918Z,70.90
2018-06-18T05:16:07.922Z,71.10
2018-06-18T05:18:00.837Z,71.58
2018-06-18T05:19:00.861Z,71.58
2018-06-18T05:20:53.797Z,71.87
2018-06-18T05:21:53.800Z,72.16
2018-06-18T05:23:46.713Z,71.87
2018-06-18T05:24:46.737Z,72.44
2018-06-18T05:26:39.671Z,72.64
2018-06-18T05:27:39.676Z,72.34
2018-06-18T05:29:32.594Z,71.58
2018-06-18T05:30:32.623Z,72.29
2018-06-18T05:32:25.554Z,72.58
2018-06-18T05:33:25.564Z,72.86
2018-06-18T05:35:18.540Z,73.73
2018-06-18T05:36:18.498Z,73.73
2018-06-18T05:38:11.418Z,72.96
2018-06-18T05:39:11.445Z,73.06
2018-06-18T05:41:04.384Z,74.11
2018-06-18T05:42:04.388Z,73.35
2018-06-18T05:43:57.300Z,73.19
2018-06-18T05:44:57.329Z,73.09
2018-06-18T05:46:50.270Z,74.05
2018-06-18T05:47:50.273Z,74.15
2018-06-18T05:49:43.190Z,73.00
2018-06-18T05:50:43.229Z,72.13
2018-06-18T05:52:36.153Z,71.65
2018-06-18T05:53:36.160Z,71.49
2018-06-18T05:55:29.074Z,71.59
2018-06-18T05:56:29.106Z,71.78
2018-06-18T05:58:22.091Z,69.85
2018-06-18T05:59:22.045Z,70.30
2018-06-18T06:01:14.995Z,70.43
2018-06-18T06:02:14.987Z,69.67
2018-06-18T06:04:07.900Z,70.05
2018-06-18T06:05:07.933Z,70.24
2018-06-18T06:07:00.865Z,70.92
2018-06-18T06:08:00.872Z,69.95
2018-06-18T06:09:53.790Z,68.60
2018-06-18T06:10:53.818Z,69.28
2018-06-18T06:12:46.757Z,69.51
2018-06-18T06:13:46.766Z,69.31
2018-06-18T06:15:39.686Z,68.84
2018-06-18T06:16:39.708Z,68.84
2018-06-18T06:18:32.655Z,67.49
2018-06-18T06:19:32.655Z,67.19
2018-06-18T06:21:25.575Z,66.81
2018-06-18T06:22:25.614Z,67.19
2018-06-18T06:24:18.539Z,67.10
2018-06-18T06:25:18.548Z,66.52
2018-06-18T06:27:11.483Z,66.91
2018-06-18T06:28:11.490Z,66.71
2018-06-18T06:30:04.405Z,66.33
2018-06-18T06:31:04.433Z,66.04
2018-06-18T06:32:57.367Z,66.24
2018-06-18T06:33:57.377Z,65.85
2018-06-18T06:35:50.293Z,65.94
2018-06-18T06:36:50.320Z,65.66
2018-06-18T06:38:43.254Z,65.94
2018-06-18T06:39:43.263Z,65.94
2018-06-18T06:41:36.181Z,65.56
2018-06-18T06:42:36.206Z,65.37
2018-06-18T06:44:29.144Z,64.98
2018-06-18T06:45:29.152Z,65.17
2018-06-18T06:47:22.073Z,64.89
2018-06-18T06:48:22.097Z,64.79
2018-06-18T06:50:15.049Z,64.31
2018-06-18T06:51:15.049Z,64.59
2018-06-18T06:53:07.996Z,64.73
2018-06-18T06:54:07.997Z,64.82
2018-06-18T06:56:00.970Z,63.38
2018-06-18T06:57:00.944Z,63.76
2018-06-18T06:58:53.881Z,63.50
2018-06-18T06:59:53.888Z,64.18
2018-06-18T07:01:46.804Z,63.31
2018-06-18T07:02:46.833Z,62.45
2018-06-18T07:04:39.779Z,62.25
2018-06-18T07:05:39.809Z,61.96
2018-06-18T07:07:32.699Z,61.29
2018-06-18T07:08:32.726Z,61.10
2018-06-18T07:10:25.684Z,60.71
2018-06-18T07:11:25.711Z,60.42
2018-06-18T07:13:18.645Z,61.00
2018-06-18T07:14:18.637Z,60.80
2018-06-18T07:16:11.579Z,61.00
2018-06-18T07:17:11.588Z,60.32
2018-06-18T07:19:04.521Z,61.10
2018-06-18T07:20:04.535Z,61.29
2018-06-18T07:21:57.447Z,61.48
2018-06-18T07:22:57.475Z,61.38
2018-06-18T07:24:50.423Z,61.38
2018-06-18T07:25:50.429Z,61.00
2018-06-18T07:27:43.352Z,61.58
2018-06-18T07:28:43.376Z,61.87
2018-06-18T07:30:36.342Z,62.32
2018-06-18T07:31:36.326Z,62.12
2018-06-18T07:33:29.248Z,63.28
2018-06-18T07:34:29.273Z,62.90
2018-06-18T07:36:22.214Z,63.67
2018-06-18T07:37:22.220Z,63.38
2018-06-18T07:39:15.154Z,63.85
2018-06-18T07:40:15.164Z,63.76
2018-06-18T07:42:08.082Z,63.85
2018-06-18T07:43:08.108Z,63.76
2018-06-18T07:45:01.057Z,63.76
2018-06-18T07:46:01.057Z,63.47
2018-06-18T07:47:53.974Z,62.99
2018-06-18T07:48:54.004Z,63.31
2018-06-18T07:50:46.941Z,62.35
2018-06-18T07:51:47.001Z,63.28
2018-06-18T07:53:39.866Z,62.35
2018-06-18T07:54:39.893Z,62.15
2018-06-18T07:56:32.831Z,62.06
2018-06-18T07:57:32.855Z,62.15
2018-06-18T07:59:25.755Z,61.32
2018-06-18T08:00:25.784Z,61.61
2018-06-18T08:02:18.722Z,61.51
2018-06-18T08:03:18.741Z,61.80
2018-06-18T08:05:11.669Z,61.32
2018-06-18T08:06:11.675Z,61.41
2018-06-18T08:08:04.599Z,60.93
2018-06-18T08:09:04.623Z,60.93
2018-06-18T08:10:57.564Z,60.64
2018-06-18T08:11:57.571Z,61.03
2018-06-18T08:13:50.493Z,60.74
2018-06-18T08:14:50.521Z,60.93
2018-06-18T08:16:43.468Z,60.83
2018-06-18T08:17:43.464Z,60.74
2018-06-18T08:19:36.398Z,60.58
2018-06-18T08:20:36.416Z,60.00
2018-06-18T08:22:29.363Z,60.58
2018-06-18T08:23:29.365Z,60.58
2018-06-18T08:25:22.313Z,60.41
2018-06-18T08:26:22.316Z,60.22
2018-06-18T08:28:15.240Z,59.74
2018-06-18T08:29:15.267Z,59.83
2018-06-18T08:31:08.207Z,60.03
2018-06-18T08:32:08.214Z,59.93
2018-06-18T08:34:01.141Z,60.16
2018-06-18T08:35:01.164Z,59.38
2018-06-18T08:36:54.119Z,58.22
2018-06-18T08:37:54.125Z,58.45
2018-06-18T08:39:47.046Z,58.15
2018-06-18T08:40:47.074Z,58.37
2018-06-18T08:42:40.017Z,57.79
2018-06-18T08:43:40.023Z,57.51
2018-06-18T08:45:32.977Z,56.28
2018-06-18T08:46:32.973Z,56.54
2018-06-18T08:48:25.895Z,56.98
2018-06-18T08:49:25.925Z,56.18
2018-06-18T08:51:18.875Z,55.53
2018-06-18T08:52:18.879Z,54.75
2018-06-18T08:54:11.805Z,54.27
2018-06-18T08:55:11.833Z,54.66
2018-06-18T08:57:04.781Z,54.17
2018-06-18T08:58:04.785Z,55.15
2018-06-18T08:59:57.712Z,54.30
2018-06-18T09:00:57.739Z,53.81
2018-06-18T09:02:50.732Z,53.63
2018-06-18T09:03:50.743Z,53.53
2018-06-18T09:05:43.697Z,53.72
2018-06-18T09:06:43.695Z,54.11
2018-06-18T09:08:36.629Z,53.85
2018-06-18T09:09:36.654Z,53.36
2018-06-18T09:11:29.606Z,52.42
2018-06-18T09:12:29.613Z,52.71
2018-06-18T09:14:22.543Z,51.18
2018-06-18T09:15:22.574Z,50.89
2018-06-18T09:17:15.525Z,50.89
2018-06-18T09:18:15.533Z,50.60
2018-06-18T09:20:08.462Z,50.29
2018-06-18T09:21:08.493Z,51.16
2018-06-18T09:23:01.438Z,50.87
2018-06-18T09:24:01.451Z,51.45
2018-06-18T09:25:54.397Z,50.67
2018-06-18T09:26:54.411Z,50.67
2018-06-18T09:28:47.367Z,50.48
2018-06-18T09:29:47.379Z,51.06
2018-06-18T09:31:40.330Z,49.73
2018-06-18T09:32:40.479Z,50.60
2018-06-18T09:34:33.266Z,51.18
2018-06-18T09:35:33.297Z,50.50
2018-06-18T09:37:26.245Z,50.70
2018-06-18T09:38:26.255Z,50.21
2018-06-18T09:40:19.186Z,50.14
2018-06-18T09:41:19.214Z,49.82
2018-06-18T09:43:12.167Z,49.82
2018-06-18T09:44:12.172Z,50.12
2018-06-18T09:46:05.595Z,49.63
2018-06-18T09:47:05.627Z,50.41
2018-06-18T09:48:58.692Z,50.31
2018-06-18T09:49:59.390Z,50.31
2018-06-18T09:51:52.005Z,50.48
2018-06-18T09:52:52.013Z,51.16
2018-06-18T09:54:44.598Z,50.96
2018-06-18T09:55:44.921Z,49.99
2018-06-18T09:57:37.577Z,50.67
2018-06-18T09:58:37.587Z,50.57
2018-06-18T10:00:30.659Z,50.87
2018-06-18T10:01:30.692Z,51.06
2018-06-18T10:03:23.652Z,51.35
2018-06-18T10:04:23.742Z,50.87
2018-06-18T10:06:16.602Z,50.96
2018-06-18T10:07:16.971Z,51.06
2018-06-18T10:09:10.159Z,51.09
2018-06-18T10:10:10.166Z,50.99
2018-06-18T10:12:03.537Z,50.21
2018-06-18T10:13:03.570Z,49.73
2018-06-18T10:14:56.517Z,49.34
2018-06-18T10:15:56.527Z,49.54
2018-06-18T10:17:49.484Z,49.63
2018-06-18T10:18:49.499Z,49.73
2018-06-18T10:20:42.426Z,49.73
2018-06-18T10:21:42.457Z,50.02
2018-06-18T10:23:35.407Z,50.57
2018-06-18T10:24:35.415Z,51.16
2018-06-18T10:26:28.350Z,51.72
2018-06-18T10:27:28.372Z,52.20
2018-06-18T10:29:21.315Z,52.36
2018-06-18T10:30:21.327Z,52.95
2018-06-18T10:32:14.255Z,53.21
2018-06-18T10:33:14.286Z,53.69
2018-06-18T10:35:07.235Z,53.50
2018-06-18T10:36:07.241Z,53.89
2018-06-18T10:38:00.171Z,53.79
2018-06-18T10:39:00.196Z,53.50
2018-06-18T10:40:53.138Z,53.91
2018-06-18T10:41:53.151Z,53.65
2018-06-18T10:43:46.589Z,53.65
2018-06-18T10:44:46.603Z,52.97
2018-06-18T10:46:39.529Z,53.07
2018-06-18T10:47:39.559Z,53.26
2018-06-18T10:49:32.504Z,52.68
2018-06-18T10:50:32.514Z,52.29
2018-06-18T10:52:25.443Z,52.10
2018-06-18T10:53:25.473Z,52.42
2018-06-18T10:55:18.425Z,52.22
2018-06-18T10:56:18.436Z,51.45
2018-06-18T10:58:11.358Z,52.22
2018-06-18T10:59:11.387Z,52.03
2018-06-18T11:01:04.342Z,51.54
2018-06-18T11:02:04.346Z,51.67
2018-06-18T11:03:57.769Z,50.79
2018-06-18T11:04:57.809Z,50.96
2018-06-18T11:06:50.743Z,51.25
2018-06-18T11:07:50.756Z,52.00
2018-06-18T11:09:43.707Z,52.20
2018-06-18T11:10:43.716Z,52.29
2018-06-18T11:12:36.644Z,52.49
2018-06-18T11:13:36.673Z,52.97
2018-06-18T11:15:29.624Z,53.45
2018-06-18T11:16:29.830Z,52.58
2018-06-18T11:18:22.557Z,52.49
2018-06-18T11:19:22.586Z,52.49
2018-06-18T11:21:15.537Z,52.61
2018-06-18T11:22:15.551Z,52.42
2018-06-18T11:24:08.475Z,51.54
2018-06-18T11:25:08.510Z,51.93
2018-06-18T11:27:01.546Z,52.15
2018-06-18T11:28:01.471Z,52.15
2018-06-18T11:29:54.404Z,51.50
2018-06-18T11:30:54.431Z,50.34
2018-06-18T11:32:49.701Z,49.58
2018-06-18T11:33:48.971Z,50.26
2018-06-18T11:35:41.995Z,49.87
2018-06-18T11:36:41.993Z,49.58
2018-06-18T11:38:35.355Z,49.22
2018-06-18T11:39:35.411Z,48.83
2018-06-18T11:41:28.354Z,47.96
2018-06-18T11:42:28.346Z,47.47
2018-06-18T11:44:21.771Z,48.73
2018-06-18T11:45:21.802Z,47.76
2018-06-18T11:47:14.747Z,48.83
2018-06-18T11:48:14.846Z,48.61
2018-06-18T11:50:07.703Z,48.80
2018-06-18T11:51:07.720Z,49.07
2018-06-18T11:53:00.672Z,49.27
2018-06-18T11:54:00.678Z,49.63
2018-06-18T11:55:53.659Z,50.50
2018-06-18T11:56:53.642Z,50.89
2018-06-18T11:58:47.083Z,51.16
2018-06-18T11:59:47.095Z,51.84
2018-06-18T12:01:40.042Z,51.96
2018-06-18T12:02:40.055Z,52.06
2018-06-18T12:04:32.982Z,51.47
2018-06-18T12:05:33.012Z,51.37
2018-06-18T12:07:25.964Z,50.70
2018-06-18T12:08:25.970Z,50.70
2018-06-18T12:10:18.897Z,51.01
2018-06-18T12:11:18.927Z,50.72
2018-06-18T12:13:11.879Z,50.43
2018-06-18T12:14:11.889Z,50.21
2018-06-18T12:16:05.312Z,51.57
2018-06-18T12:17:05.342Z,51.37
2018-06-18T12:18:58.353Z,50.31
2018-06-18T12:19:58.365Z,50.89
2018-06-18T12:21:51.424Z,51.09
2018-06-18T12:22:51.421Z,52.15
2018-06-18T12:24:44.446Z,51.57
2018-06-18T12:25:44.478Z,52.25
2018-06-18T12:27:37.523Z,52.25
2018-06-18T12:28:37.604Z,51.96
2018-06-18T12:30:30.559Z,51.86
2018-06-18T12:31:30.590Z,51.21
2018-06-18T12:33:23.543Z,51.31
2018-06-18T12:34:23.549Z,51.21
2018-06-18T12:36:16.475Z,52.44
2018-06-18T12:37:16.507Z,52.25
2018-06-18T12:39:09.462Z,52.44
2018-06-18T12:40:09.471Z,52.71
2018-06-18T12:42:02.894Z,53.19
2018-06-18T12:43:02.925Z,53.09
2018-06-18T12:44:55.898Z,53.22
2018-06-18T12:45:55.886Z,53.70
2018-06-18T12:47:48.846Z,52.71
2018-06-18T12:48:48.840Z,53.29
2018-06-18T12:50:41.770Z,53.67
2018-06-18T12:51:41.802Z,53.65
2018-06-18T12:53:34.753Z,54.43
2018-06-18T12:54:34.764Z,54.62
2018-06-18T12:56:27.687Z,54.33
2018-06-18T12:57:27.715Z,54.71
2018-06-18T12:59:20.660Z,54.59
2018-06-18T13:00:20.669Z,54.62
2018-06-18T13:02:15.082Z,54.71
2018-06-18T13:03:15.113Z,54.62
2018-06-18T13:05:08.553Z,54.59
2018-06-18T13:06:08.567Z,54.69
2018-06-18T13:08:01.517Z,54.59
2018-06-18T13:09:01.526Z,55.17
2018-06-18T13:10:54.461Z,55.46
2018-06-18T13:11:54.524Z,55.76
2018-06-18T13:13:47.441Z,55.56
2018-06-18T13:14:47.447Z,55.56
2018-06-18T13:16:40.375Z,55.00
2018-06-18T13:17:40.401Z,55.00
2018-06-18T13:19:33.353Z,56.36
2018-06-18T13:20:33.360Z,55.58
2018-06-18T13:22:26.289Z,55.20
2018-06-18T13:23:26.355Z,54.84
2018-06-18T13:25:19.272Z,54.35
2018-06-18T13:26:19.283Z,54.26
2018-06-18T13:28:12.230Z,53.61
2018-06-18T13:29:12.239Z,53.12
2018-06-18T13:31:05.169Z,53.70
2018-06-18T13:32:05.197Z,52.76
2018-06-18T13:33:58.150Z,53.24
2018-06-18T13:34:58.160Z,52.86
2018-06-18T13:36:51.089Z,52.37
2018-06-18T13:37:51.119Z,52.28
2018-06-18T13:39:44.069Z,52.40
2018-06-18T13:40:44.074Z,52.78
2018-06-18T13:42:37.004Z,51.55
2018-06-18T13:43:37.037Z,51.23
2018-06-18T13:45:29.990Z,50.94
2018-06-18T13:46:30.000Z,51.33
2018-06-18T13:48:22.957Z,52.40
2018-06-18T13:49:22.963Z,52.01
2018-06-18T13:51:15.893Z,52.28
2018-06-18T13:52:15.923Z,52.18
2018-06-18T13:54:09.864Z,52.37
2018-06-18T13:55:09.876Z,52.56
2018-06-18T13:57:02.807Z,52.34
2018-06-18T13:58:02.835Z,52.54
2018-06-18T13:59:56.277Z,52.54
2018-06-18T14:00:56.287Z,52.66
2018-06-18T14:02:49.216Z,52.37
2018-06-18T14:03:49.251Z,52.28
2018-06-18T14:05:42.701Z,53.31
2018-06-18T14:06:42.712Z,53.70
2018-06-18T14:08:35.664Z,53.02
2018-06-18T14:09:35.677Z,53.70
2018-06-18T14:11:28.602Z,53.31
2018-06-18T14:12:28.632Z,52.93
2018-06-18T14:14:21.584Z,53.87
2018-06-18T14:15:21.593Z,54.06
2018-06-18T14:17:14.520Z,54.35
2018-06-18T14:18:14.554Z,55.32
2018-06-18T14:20:07.501Z,56.10
2018-06-18T14:21:07.515Z,56.20
2018-06-18T14:23:00.939Z,56.65
2018-06-18T14:24:00.968Z,56.49
2018-06-18T14:25:53.916Z,56.29
2018-06-18T14:26:53.925Z,55.54
2018-06-18T14:28:46.874Z,55.44
2018-06-18T14:29:46.888Z,55.44
2018-06-18T14:31:39.809Z,55.44
2018-06-18T14:32:39.896Z,55.26
2018-06-18T14:34:32.795Z,54.96
2018-06-18T14:35:32.808Z,54.77
2018-06-18T14:37:25.737Z,54.67
2018-06-18T14:38:25.770Z,54.31
2018-06-18T14:40:18.763Z,53.83
2018-06-18T14:41:18.727Z,53.89
2018-06-18T14:43:11.658Z,54.67
2018-06-18T14:44:11.688Z,54.77
2018-06-18T14:46:04.721Z,54.67
2018-06-18T14:47:04.655Z,55.16
2018-06-18T14:48:57.580Z,55.44
2018-06-18T14:49:57.611Z,56.51
2018-06-18T14:51:50.709Z,55.83
2018-06-18T14:52:50.670Z,55.87
2018-06-18T14:54:43.710Z,55.26
2018-06-18T14:55:43.723Z,55.44
2018-06-18T14:57:36.776Z,56.13
2018-06-18T14:58:36.777Z,56.71
2018-06-18T15:00:29.822Z,56.41
2018-06-18T15:01:29.834Z,57.00
2018-06-18T15:03:23.278Z,56.23
2018-06-18T15:04:23.317Z,56.71
2018-06-18T15:06:16.889Z,57.39
2018-06-18T15:07:16.998Z,57.19
2018-06-18T15:09:10.000Z,58.14
2018-06-18T15:10:09.854Z,58.33
2018-06-18T15:12:02.869Z,58.14
2018-06-18T15:13:02.906Z,58.52
2018-06-18T15:15:04.517Z,58.42
2018-06-18T15:16:04.579Z,58.74
2018-06-18T15:17:59.689Z,58.36
2018-06-18T15:18:59.716Z,58.16
2018-06-18T15:20:52.686Z,58.65
2018-06-18T15:21:52.699Z,58.45
2018-06-18T15:23:45.772Z,57.19
2018-06-18T15:24:45.755Z,57.80
2018-06-18T15:26:39.240Z,56.74
2018-06-18T15:27:39.225Z,57.12
2018-06-18T15:29:32.252Z,56.47
2018-06-18T15:30:32.282Z,56.57
2018-06-18T15:32:25.371Z,56.09
2018-06-18T15:33:25.336Z,55.69
2018-06-18T15:35:18.364Z,55.41
2018-06-18T15:36:18.390Z,55.79
2018-06-18T15:38:11.520Z,55.87
2018-06-18T15:39:11.450Z,56.64
2018-06-18T15:41:04.504Z,56.64
2018-06-18T15:42:04.527Z,57.03
2018-06-18T15:43:57.645Z,57.39
2018-06-18T15:44:57.580Z,57.97
2018-06-18T15:46:50.607Z,58.16
2018-06-18T15:47:50.615Z,58.36
2018-06-18T15:49:43.641Z,59.00
2018-06-18T15:50:43.671Z,58.72
2018-06-18T15:52:36.717Z,59.46
2018-06-18T15:53:36.735Z,59.75
2018-06-18T15:55:29.753Z,60.04
2018-06-18T15:56:29.792Z,60.62
2018-06-18T15:58:22.971Z,60.69
2018-06-18T15:59:22.918Z,60.78
2018-06-18T16:01:15.869Z,60.30
2018-06-18T16:02:15.925Z,60.59
2018-06-18T16:04:09.000Z,61.18
2018-06-18T16:05:09.011Z,61.66
2018-06-18T16:07:02.003Z,61.46
2018-06-18T16:08:02.105Z,61.63
2018-06-18T16:09:55.037Z,62.24
2018-06-18T16:10:55.072Z,62.53
2018-06-18T16:12:48.111Z,62.24
2018-06-18T16:13:48.489Z,62.17
2018-06-18T16:15:41.147Z,60.72
2018-06-18T16:16:41.177Z,60.62
2018-06-18T16:18:35.657Z,60.91
2018-06-18T16:19:35.667Z,60.91
2018-06-18T16:21:28.696Z,61.59
2018-06-18T16:22:28.727Z,61.59
2018-06-18T16:24:22.179Z,60.72
2018-06-18T16:25:22.190Z,61.21
2018-06-18T16:27:15.217Z,61.49
2018-06-18T16:28:15.249Z,61.49
2018-06-18T16:30:08.293Z,61.33
2018-06-18T16:31:08.306Z,60.75
2018-06-18T16:33:01.355Z,60.46
2018-06-18T16:34:01.363Z,61.04
2018-06-18T16:35:54.392Z,59.97
2018-06-18T16:36:54.419Z,60.10
2018-06-18T16:38:47.462Z,59.81
2018-06-18T16:39:47.474Z,59.52
2018-06-18T16:41:40.511Z,59.59
2018-06-18T16:42:40.534Z,59.39
2018-06-18T16:44:33.576Z,59.88
2018-06-18T16:45:33.586Z,59.88
2018-06-18T16:47:26.612Z,59.78
2018-06-18T16:48:26.661Z,60.36
2018-06-18T16:50:19.688Z,59.59
2018-06-18T16:51:19.703Z,60.72
2018-06-18T16:53:12.754Z,60.65
2018-06-18T16:54:12.757Z,60.82
2018-06-18T16:56:08.753Z,60.72
2018-06-18T16:57:08.782Z,61.01
2018-06-18T16:59:01.830Z,61.11
2018-06-18T17:00:01.841Z,61.49
2018-06-18T17:01:54.920Z,61.98
2018-06-18T17:02:54.898Z,62.17
2018-06-18T17:04:47.940Z,62.24
2018-06-18T17:05:47.951Z,62.34
2018-06-18T17:07:41.474Z,62.17
2018-06-18T17:08:41.443Z,62.04
2018-06-18T17:10:34.462Z,61.85
2018-06-18T17:11:34.474Z,62.46
2018-06-18T17:13:27.499Z,62.17
2018-06-18T17:14:27.529Z,62.14
2018-06-18T17:16:20.575Z,62.43
2018-06-18T17:17:20.589Z,62.14
2018-06-18T17:19:13.632Z,62.37
2018-06-18T17:20:13.650Z,62.04
2018-06-18T17:22:06.673Z,63.08
2018-06-18T17:23:06.700Z,63.40
2018-06-18T17:24:59.879Z,63.76
2018-06-18T17:25:59.855Z,63.76
2018-06-18T17:27:52.783Z,63.95
2018-06-18T17:28:52.813Z,63.85
2018-06-18T17:30:45.864Z,63.89
2018-06-18T17:31:45.905Z,63.69
2018-06-18T17:33:38.900Z,63.46
2018-06-18T17:34:38.925Z,63.66
2018-06-18T17:36:31.974Z,63.79
2018-06-18T17:37:32.016Z,63.37
2018-06-18T17:39:25.035Z,63.95
2018-06-18T17:40:25.038Z,64.27
2018-06-18T17:42:25.544Z,63.76
2018-06-18T17:43:25.594Z,63.95
2018-06-18T17:45:18.617Z,63.76
2018-06-18T17:46:18.630Z,64.24
2018-06-18T17:48:11.715Z,64.04
2018-06-18T17:49:11.688Z,64.24
2018-06-18T17:51:04.730Z,64.62
2018-06-18T17:52:04.741Z,65.01
2018-06-18T17:53:57.800Z,66.95
2018-06-18T17:54:57.798Z,67.21
2018-06-18T17:56:51.253Z,67.59
2018-06-18T17:57:51.262Z,67.69
2018-06-18T17:59:44.288Z,68.56
2018-06-18T18:00:44.318Z,68.56
2018-06-18T18:02:37.419Z,68.08
2018-06-18T18:03:37.375Z,67.88
2018-06-18T18:05:30.424Z,67.98
2018-06-18T18:06:30.481Z,68.95
2018-06-18T18:08:23.458Z,67.79
2018-06-18T18:09:23.487Z,67.69
2018-06-18T18:11:16.560Z,67.30
2018-06-18T18:12:16.548Z,66.82
2018-06-18T18:14:09.574Z,67.30
2018-06-18T18:15:09.601Z,67.01
2018-06-18T18:17:02.654Z,67.11
2018-06-18T18:18:02.661Z,67.21
2018-06-18T18:19:55.698Z,67.30
2018-06-18T18:20:55.717Z,67.01
2018-06-18T18:22:48.764Z,67.14
2018-06-18T18:23:48.773Z,67.14
2018-06-18T18:25:42.227Z,67.21
2018-06-18T18:26:42.325Z,66.82
2018-06-18T18:28:35.304Z,67.14
2018-06-18T18:29:35.296Z,67.05
2018-06-18T18:31:28.346Z,66.27
2018-06-18T18:32:28.352Z,66.27
2018-06-18T18:34:21.376Z,66.63